Wetterdaten: Woche 10.05.10 - 16.05.10 (KW19)
Datum Zeit Temp. A. Feuchte A. Luftdruck Regen Wind Richtung Taupunkt Windchill Windben
10.05.2010 00:00 13,4 C 83 % 1006,2 hPa 0,0 l/m 0,0 km/h N 10,5 C 13,4 C 1,6 km/h
10.05.2010 01:00 12,2 C 88 % 1005,8 hPa 0,0 l/m 0,0 km/h N 10,2 C 12,2 C 0,0 km/h
10.05.2010 02:00 11,4 C 90 % 1005,2 hPa 0,0 l/m 0,0 km/h N 9,9 C 11,4 C 0,0 km/h
10.05.2010 03:00 11,1 C 91 % 1004,5 hPa 0,0 l/m 0,0 km/h N 9,7 C 11,1 C 0,0 km/h
10.05.2010 04:00 11,1 C 92 % 1003,9 hPa 0,0 l/m 0,0 km/h N 9,7 C 11,1 C 0,0 km/h
10.05.2010 05:00 10,5 C 92 % 1003,9 hPa 0,0 l/m 0,0 km/h N 9,2 C 10,5 C 0,0 km/h
10.05.2010 06:00 10,9 C 92 % 1004,2 hPa 0,0 l/m 0,0 km/h N 9,7 C 10,9 C 0,4 km/h
10.05.2010 07:00 12,8 C 87 % 1004,2 hPa 0,0 l/m 1,8 km/h N-NW 10,7 C 12,8 C 5,2 km/h
10.05.2010 08:00 14,9 C 77 % 1004,3 hPa 0,0 l/m 3,9 km/h NW 10,8 C 14,9 C 9,7 km/h
10.05.2010 09:00 16,0 C 73 % 1004,4 hPa 0,0 l/m 2,9 km/h N 11,1 C 16,0 C 8,5 km/h
10.05.2010 10:00 17,3 C 68 % 1004,6 hPa 0,0 l/m 3,5 km/h NW 11,3 C 17,3 C 8,9 km/h
10.05.2010 11:00 19,0 C 63 % 1004,5 hPa 0,0 l/m 2,5 km/h N-NW 11,7 C 19,0 C 8,4 km/h
10.05.2010 12:00 18,9 C 63 % 1004,6 hPa 0,0 l/m 2,7 km/h NO 11,7 C 18,9 C 7,2 km/h
10.05.2010 13:00 19,2 C 63 % 1004,4 hPa 0,0 l/m 3,0 km/h NO 11,9 C 19,2 C 6,8 km/h
10.05.2010 14:00 19,1 C 63 % 1004,4 hPa 0,0 l/m 2,0 km/h O 11,9 C 19,1 C 5,2 km/h
10.05.2010 15:00 19,4 C 65 % 1004,5 hPa 0,0 l/m 1,0 km/h SO 12,6 C 19,4 C 4,4 km/h
10.05.2010 16:00 18,1 C 72 % 1005,0 hPa 4,2 l/m 2,2 km/h S-SO 12,8 C 18,1 C 10,9 km/h
10.05.2010 17:00 14,8 C 85 % 1005,9 hPa 0,8 l/m 1,5 km/h O 12,2 C 14,8 C 5,2 km/h
10.05.2010 18:00 14,7 C 86 % 1006,4 hPa 0,0 l/m 0,3 km/h N 12,3 C 14,7 C 2,4 km/h
10.05.2010 19:00 14,7 C 87 % 1006,5 hPa 0,3 l/m 0,5 km/h N-NO 12,5 C 14,7 C 2,4 km/h
10.05.2010 20:00 14,1 C 89 % 1006,8 hPa 0,0 l/m 0,1 km/h N 12,2 C 14,1 C 1,2 km/h
10.05.2010 21:00 13,9 C 90 % 1007,0 hPa 0,0 l/m 0,2 km/h N 12,3 C 13,9 C 2,0 km/h
10.05.2010 22:00 14,1 C 90 % 1007,2 hPa 0,0 l/m 0,1 km/h N 12,4 C 14,1 C 1,6 km/h
10.05.2010 23:00 14,0 C 89 % 1007,3 hPa 0,0 l/m 0,5 km/h NW 12,3 C 14,0 C 4,0 km/h
11.05.2010 00:00 13,6 C 91 % 1007,5 hPa 0,0 l/m 0,0 km/h N 12,1 C 13,6 C 0,8 km/h
11.05.2010 01:00 13,2 C 92 % 1007,6 hPa 0,0 l/m 0,0 km/h N 11,9 C 13,2 C 0,0 km/h
11.05.2010 02:00 12,1 C 92 % 1007,8 hPa 0,0 l/m 0,0 km/h N 10,8 C 12,1 C 0,8 km/h
11.05.2010 03:00 11,1 C 92 % 1008,0 hPa 0,0 l/m 0,1 km/h N 9,8 C 11,1 C 0,4 km/h
11.05.2010 04:00 10,4 C 93 % 1008,2 hPa 0,0 l/m 0,0 km/h N 9,3 C 10,4 C 0,0 km/h
11.05.2010 05:00 10,1 C 93 % 1008,2 hPa 0,0 l/m 0,0 km/h N 9,0 C 10,1 C 0,0 km/h
11.05.2010 06:00 10,5 C 93 % 1008,3 hPa 0,0 l/m 0,0 km/h N 9,4 C 10,5 C 0,8 km/h
11.05.2010 07:00 12,2 C 92 % 1008,4 hPa 0,0 l/m 0,0 km/h N 11,0 C 12,2 C 0,0 km/h
11.05.2010 08:00 14,6 C 89 % 1008,3 hPa 0,0 l/m 0,2 km/h O-SO 12,7 C 14,6 C 1,6 km/h
11.05.2010 09:00 15,6 C 84 % 1008,0 hPa 0,0 l/m 1,1 km/h O 12,9 C 15,6 C 4,0 km/h
11.05.2010 10:00 16,8 C 82 % 1007,8 hPa 0,0 l/m 2,1 km/h O 13,7 C 16,8 C 6,8 km/h
11.05.2010 11:00 17,6 C 78 % 1007,4 hPa 0,0 l/m 1,1 km/h O 13,6 C 17,6 C 7,2 km/h
11.05.2010 12:00 19,1 C 69 % 1006,7 hPa 0,0 l/m 3,5 km/h O 13,3 C 19,1 C 9,7 km/h
11.05.2010 13:00 19,2 C 68 % 1006,3 hPa 0,0 l/m 4,6 km/h O 13,0 C 19,2 C 12,9 km/h
11.05.2010 14:00 19,8 C 65 % 1005,8 hPa 0,0 l/m 5,1 km/h O 13,1 C 19,8 C 11,3 km/h
11.05.2010 15:00 20,3 C 63 % 1005,3 hPa 0,0 l/m 4,1 km/h O-NO 12,9 C 20,3 C 10,5 km/h
11.05.2010 16:00 21,7 C 59 % 1004,6 hPa 0,0 l/m 2,8 km/h O-NO 13,2 C 21,7 C 11,3 km/h
11.05.2010 17:00 21,6 C 59 % 1004,4 hPa 0,0 l/m 2,1 km/h O 13,2 C 21,6 C 8,4 km/h
11.05.2010 18:00 21,4 C 58 % 1004,4 hPa 0,0 l/m 2,6 km/h NO 12,8 C 21,4 C 16,1 km/h
11.05.2010 19:00 20,5 C 61 % 1004,3 hPa 0,0 l/m 1,6 km/h O 12,6 C 20,5 C 12,5 km/h
11.05.2010 20:00 19,2 C 65 % 1004,2 hPa 0,0 l/m 1,2 km/h S-SO 12,4 C 19,2 C 8,1 km/h
11.05.2010 21:00 18,5 C 67 % 1003,9 hPa 0,0 l/m 0,9 km/h S 12,2 C 18,5 C 8,4 km/h
11.05.2010 22:00 17,8 C 71 % 1003,5 hPa 0,0 l/m 0,4 km/h N 12,3 C 17,8 C 5,2 km/h
11.05.2010 23:00 16,9 C 75 % 1003,1 hPa 0,0 l/m 0,6 km/h N 12,4 C 16,9 C 6,0 km/h
12.05.2010 00:00 15,9 C 78 % 1003,4 hPa 0,0 l/m 0,1 km/h N 12,1 C 15,9 C 3,2 km/h
12.05.2010 01:00 15,2 C 81 % 1003,0 hPa 0,0 l/m 0,2 km/h N 11,9 C 15,2 C 2,0 km/h
12.05.2010 02:00 15,3 C 81 % 1003,3 hPa 0,0 l/m 0,4 km/h N 12,0 C 15,3 C 2,8 km/h
12.05.2010 03:00 14,8 C 84 % 1003,5 hPa 0,0 l/m 0,1 km/h N 12,2 C 14,8 C 2,4 km/h
12.05.2010 04:00 13,7 C 86 % 1003,8 hPa 0,0 l/m 0,0 km/h N 11,4 C 13,7 C 1,2 km/h
12.05.2010 05:00 13,3 C 89 % 1004,3 hPa 0,0 l/m 0,0 km/h N 11,5 C 13,3 C 2,0 km/h
12.05.2010 06:00 13,6 C 90 % 1004,8 hPa 0,0 l/m 0,1 km/h N 12,0 C 13,6 C 0,8 km/h
12.05.2010 07:00 14,9 C 78 % 1005,1 hPa 0,0 l/m 1,4 km/h S 11,0 C 14,9 C 8,1 km/h
12.05.2010 08:00 16,2 C 70 % 1005,4 hPa 0,0 l/m 0,8 km/h S-SW 10,6 C 16,2 C 5,6 km/h
12.05.2010 09:00 16,2 C 68 % 1005,7 hPa 0,0 l/m 1,4 km/h S-SW 10,2 C 16,2 C 8,6 km/h
12.05.2010 10:00 16,1 C 69 % 1006,3 hPa 0,0 l/m 1,6 km/h NW 10,3 C 16,1 C 8,9 km/h
12.05.2010 11:00 15,9 C 71 % 1006,6 hPa 0,0 l/m 1,6 km/h W-SW 10,6 C 15,9 C 12,1 km/h
12.05.2010 12:00 16,3 C 71 % 1006,6 hPa 0,0 l/m 2,4 km/h N-NW 11,0 C 16,3 C 13,7 km/h
12.05.2010 13:00 16,4 C 71 % 1006,8 hPa 0,0 l/m 4,0 km/h SW 11,0 C 16,4 C 17,7 km/h
12.05.2010 14:00 16,2 C 71 % 1006,9 hPa 0,0 l/m 1,6 km/h NW 10,9 C 16,2 C 16,1 km/h
12.05.2010 15:00 16,0 C 74 % 1006,8 hPa 0,0 l/m 2,4 km/h N-NW 11,3 C 16,0 C 9,7 km/h
12.05.2010 16:00 16,0 C 73 % 1006,4 hPa 0,0 l/m 1,6 km/h S-SW 11,2 C 16,0 C 8,9 km/h
12.05.2010 17:00 15,8 C 75 % 1006,6 hPa 0,0 l/m 2,4 km/h N-NW 11,2 C 15,8 C 11,3 km/h
12.05.2010 18:00 16,0 C 75 % 1006,6 hPa 0,0 l/m 1,6 km/h N-NW 11,5 C 16,0 C 7,2 km/h
12.05.2010 19:00 16,7 C 71 % 1006,5 hPa 0,0 l/m 2,4 km/h N-NW 11,3 C 16,7 C 8,9 km/h
12.05.2010 20:00 15,4 C 76 % 1006,8 hPa 0,0 l/m 0,8 km/h N 11,0 C 15,4 C 4,0 km/h
12.05.2010 21:00 12,6 C 84 % 1007,1 hPa 0,0 l/m 0,0 km/h N 10,0 C 12,6 C 0,8 km/h
12.05.2010 22:00 12,1 C 85 % 1007,2 hPa 0,0 l/m 0,0 km/h N 9,6 C 12,1 C 0,8 km/h
12.05.2010 23:00 10,7 C 89 % 1007,0 hPa 0,0 l/m 0,0 km/h N 9,0 C 10,7 C 0,8 km/h
13.05.2010 00:00 11,4 C 87 % 1006,7 hPa 0,0 l/m 0,0 km/h N 9,3 C 11,4 C 4,0 km/h
13.05.2010 01:00 11,2 C 85 % 1006,7 hPa 0,0 l/m 0,0 km/h N 8,7 C 11,2 C 5,6 km/h
13.05.2010 02:00 10,2 C 88 % 1006,7 hPa 0,0 l/m 0,0 km/h N 8,2 C 10,2 C 1,6 km/h
13.05.2010 03:00 9,9 C 88 % 1006,5 hPa 0,0 l/m 0,0 km/h N 7,9 C 9,9 C 4,0 km/h
13.05.2010 04:00 9,4 C 87 % 1006,3 hPa 0,0 l/m 0,0 km/h N 7,3 C 9,4 C 4,8 km/h
13.05.2010 05:00 9,1 C 87 % 1006,0 hPa 0,0 l/m 0,0 km/h N 7,1 C 9,1 C 4,0 km/h
13.05.2010 06:00 9,4 C 89 % 1006,0 hPa 0,0 l/m 0,0 km/h N 7,6 C 9,4 C 0,8 km/h
13.05.2010 07:00 11,4 C 87 % 1006,1 hPa 0,0 l/m 0,0 km/h N 9,2 C 11,4 C 4,0 km/h
13.05.2010 08:00 13,8 C 81 % 1006,0 hPa 0,0 l/m 0,0 km/h N 10,5 C 13,8 C 4,8 km/h
13.05.2010 09:00 16,1 C 74 % 1006,0 hPa 0,0 l/m 0,5 km/h O-NO 11,4 C 16,1 C 4,8 km/h
13.05.2010 10:00 17,5 C 72 % 1005,6 hPa 0,0 l/m 1,2 km/h NO 12,4 C 17,5 C 4,4 km/h
13.05.2010 11:00 18,0 C 67 % 1005,3 hPa 0,0 l/m 1,1 km/h NO 11,9 C 18,0 C 4,4 km/h
13.05.2010 12:00 18,4 C 65 % 1004,9 hPa 0,0 l/m 0,6 km/h N 11,7 C 18,4 C 4,4 km/h
13.05.2010 13:00 18,2 C 67 % 1004,7 hPa 0,0 l/m 0,6 km/h O-SO 11,9 C 18,2 C 3,6 km/h
13.05.2010 14:00 18,2 C 66 % 1004,2 hPa 0,0 l/m 0,5 km/h O 11,8 C 18,2 C 3,6 km/h
13.05.2010 15:00 18,4 C 66 % 1003,9 hPa 0,0 l/m 0,2 km/h N 11,8 C 18,4 C 2,8 km/h
13.05.2010 16:00 17,6 C 73 % 1003,7 hPa 0,0 l/m 2,8 km/h S 12,7 C 17,6 C 9,3 km/h
13.05.2010 17:00 16,0 C 79 % 1004,0 hPa 0,3 l/m 1,6 km/h NW 12,3 C 16,0 C 6,4 km/h
13.05.2010 18:00 13,8 C 87 % 1004,4 hPa 6,8 l/m 0,5 km/h N 11,7 C 13,8 C 2,4 km/h
13.05.2010 19:00 13,3 C 91 % 1004,4 hPa 1,8 l/m 0,4 km/h N 11,8 C 13,3 C 2,4 km/h
13.05.2010 20:00 13,2 C 91 % 1004,2 hPa 0,5 l/m 0,1 km/h N 11,8 C 13,2 C 2,4 km/h
13.05.2010 21:00 13,1 C 92 % 1004,5 hPa 0,3 l/m 0,8 km/h N 11,9 C 13,1 C 3,6 km/h
13.05.2010 22:00 12,9 C 92 % 1004,4 hPa 0,3 l/m 0,0 km/h N 11,6 C 12,9 C 0,4 km/h
13.05.2010 23:00 12,8 C 92 % 1004,2 hPa 0,0 l/m 0,0 km/h N 11,6 C 12,8 C 0,0 km/h
14.05.2010 00:00 12,8 C 92 % 1004,1 hPa 0,0 l/m 0,1 km/h N 11,5 C 12,8 C 1,6 km/h
14.05.2010 01:00 12,8 C 92 % 1003,8 hPa 0,0 l/m 0,0 km/h N 11,5 C 12,8 C 0,4 km/h
14.05.2010 02:00 12,8 C 92 % 1003,8 hPa 0,0 l/m 0,1 km/h N 11,5 C 12,8 C 1,2 km/h
14.05.2010 03:00 12,5 C 92 % 1003,6 hPa 0,0 l/m 0,3 km/h N 11,3 C 12,5 C 2,4 km/h
14.05.2010 04:00 12,3 C 92 % 1003,6 hPa 0,0 l/m 0,7 km/h N-NW 10,9 C 12,3 C 4,0 km/h
14.05.2010 05:00 11,9 C 92 % 1003,9 hPa 0,5 l/m 0,9 km/h N 10,6 C 11,9 C 4,0 km/h
14.05.2010 06:00 11,7 C 92 % 1004,3 hPa 0,3 l/m 0,3 km/h O 10,4 C 11,7 C 2,8 km/h
14.05.2010 07:00 11,4 C 91 % 1004,4 hPa 0,8 l/m 1,8 km/h NW 10,0 C 11,4 C 8,0 km/h
14.05.2010 08:00 11,4 C 91 % 1004,8 hPa 0,5 l/m 2,8 km/h N-NW 10,0 C 11,4 C 10,1 km/h
14.05.2010 09:00 11,2 C 91 % 1005,1 hPa 1,0 l/m 2,7 km/h NW 9,8 C 11,2 C 8,0 km/h
14.05.2010 10:00 11,8 C 88 % 1005,5 hPa 0,0 l/m 4,7 km/h N-NW 9,8 C 11,8 C 13,3 km/h
14.05.2010 11:00 12,3 C 84 % 1005,7 hPa 0,0 l/m 6,1 km/h N-NW 9,7 C 12,2 C 15,7 km/h
14.05.2010 12:00 12,4 C 84 % 1005,9 hPa 0,0 l/m 5,8 km/h N-NW 9,7 C 12,3 C 16,1 km/h
14.05.2010 13:00 12,9 C 81 % 1006,1 hPa 0,0 l/m 6,6 km/h N-NW 9,6 C 12,5 C 17,3 km/h
14.05.2010 14:00 13,0 C 78 % 1006,5 hPa 0,0 l/m 5,0 km/h W 9,2 C 12,9 C 14,9 km/h
14.05.2010 15:00 13,7 C 76 % 1006,8 hPa 0,0 l/m 5,4 km/h NW 9,5 C 13,7 C 14,1 km/h
14.05.2010 16:00 12,9 C 79 % 1007,4 hPa 0,0 l/m 4,6 km/h N 9,3 C 12,9 C 12,1 km/h
14.05.2010 17:00 13,4 C 76 % 1007,2 hPa 0,0 l/m 6,0 km/h NO 9,2 C 13,1 C 15,7 km/h
14.05.2010 18:00 13,1 C 75 % 1007,1 hPa 0,0 l/m 4,6 km/h N-NW 8,8 C 13,1 C 10,1 km/h
14.05.2010 19:00 12,4 C 78 % 1007,3 hPa 0,0 l/m 2,8 km/h NW 8,7 C 12,4 C 7,3 km/h
14.05.2010 20:00 11,6 C 82 % 1007,7 hPa 0,0 l/m 0,3 km/h N 8,5 C 11,6 C 2,0 km/h
14.05.2010 21:00 10,8 C 86 % 1007,9 hPa 0,0 l/m 0,3 km/h N 8,5 C 10,8 C 2,4 km/h
14.05.2010 22:00 9,9 C 89 % 1008,3 hPa 0,0 l/m 0,2 km/h N 8,1 C 9,9 C 1,2 km/h
14.05.2010 23:00 9,3 C 89 % 1008,2 hPa 0,0 l/m 0,3 km/h N 7,6 C 9,3 C 2,8 km/h
15.05.2010 00:00 9,5 C 88 % 1008,5 hPa 0,0 l/m 0,1 km/h N 7,6 C 9,5 C 2,0 km/h
15.05.2010 01:00 9,7 C 88 % 1008,0 hPa 0,0 l/m 0,6 km/h W-NW 7,7 C 9,7 C 3,6 km/h
15.05.2010 02:00 10,4 C 86 % 1007,7 hPa 0,0 l/m 2,0 km/h W-NW 8,0 C 10,4 C 5,6 km/h
15.05.2010 03:00 10,2 C 85 % 1007,3 hPa 0,0 l/m 1,2 km/h N-NW 7,7 C 10,2 C 4,0 km/h
15.05.2010 04:00 10,0 C 86 % 1006,9 hPa 0,0 l/m 1,1 km/h N-NW 7,7 C 10,0 C 4,0 km/h
15.05.2010 05:00 10,1 C 86 % 1006,5 hPa 0,0 l/m 1,8 km/h NW 7,8 C 10,1 C 4,8 km/h
15.05.2010 06:00 10,4 C 85 % 1006,3 hPa 0,0 l/m 2,2 km/h N-NW 8,0 C 10,4 C 6,0 km/h
15.05.2010 07:00 10,6 C 82 % 1006,3 hPa 0,0 l/m 2,6 km/h N-NW 7,7 C 10,6 C 8,8 km/h
15.05.2010 08:00 10,8 C 81 % 1005,8 hPa 0,0 l/m 2,5 km/h N-NW 7,6 C 10,8 C 6,8 km/h
15.05.2010 09:00 11,0 C 80 % 1005,2 hPa 0,0 l/m 3,5 km/h N-NW 7,7 C 11,0 C 10,5 km/h
15.05.2010 10:00 11,5 C 75 % 1005,4 hPa 0,0 l/m 6,1 km/h N-NO 7,2 C 11,3 C 14,1 km/h
15.05.2010 11:00 12,2 C 73 % 1005,3 hPa 0,0 l/m 5,8 km/h N-NO 7,5 C 12,2 C 12,5 km/h
15.05.2010 12:00 12,4 C 69 % 1004,8 hPa 0,0 l/m 6,1 km/h N-NO 6,9 C 12,3 C 14,9 km/h
15.05.2010 13:00 12,3 C 70 % 1004,0 hPa 0,0 l/m 7,8 km/h NW 7,0 C 11,4 C 19,3 km/h
15.05.2010 14:00 12,1 C 69 % 1003,9 hPa 0,0 l/m 7,3 km/h N-NW 6,7 C 11,6 C 18,9 km/h
15.05.2010 15:00 12,0 C 70 % 1003,6 hPa 0,0 l/m 5,9 km/h NW 6,7 C 12,0 C 15,3 km/h
15.05.2010 16:00 11,9 C 71 % 1003,2 hPa 0,0 l/m 7,8 km/h N-NW 6,7 C 10,9 C 16,9 km/h
15.05.2010 17:00 11,2 C 73 % 1003,3 hPa 0,0 l/m 8,3 km/h N-NW 6,5 C 10,0 C 20,1 km/h
15.05.2010 18:00 10,1 C 80 % 1003,2 hPa 1,0 l/m 5,8 km/h NW 6,8 C 10,1 C 15,3 km/h
15.05.2010 19:00 9,1 C 86 % 1002,9 hPa 1,0 l/m 6,4 km/h N-NW 6,8 C 8,9 C 18,5 km/h
15.05.2010 20:00 8,8 C 87 % 1003,0 hPa 1,6 l/m 5,5 km/h N-NW 6,6 C 8,8 C 19,3 km/h
15.05.2010 21:00 8,6 C 88 % 1003,5 hPa 1,8 l/m 6,7 km/h N 6,7 C 8,4 C 17,7 km/h
15.05.2010 22:00 8,4 C 88 % 1003,7 hPa 1,0 l/m 7,8 km/h N-NW 6,6 C 7,4 C 22,9 km/h
15.05.2010 23:00 8,3 C 88 % 1003,7 hPa 0,8 l/m 7,6 km/h N-NO 6,5 C 7,4 C 21,3 km/h
16.05.2010 00:00 8,1 C 88 % 1003,8 hPa 0,5 l/m 9,8 km/h N-NW 6,3 C 5,8 C 27,8 km/h
16.05.2010 01:00 7,8 C 88 % 1003,6 hPa 1,3 l/m 10,2 km/h N-NW 5,9 C 5,1 C 25,8 km/h
16.05.2010 02:00 7,2 C 88 % 1003,8 hPa 1,3 l/m 12,4 km/h N-NW 5,3 C 3,1 C 31,8 km/h
16.05.2010 03:00 6,8 C 87 % 1004,2 hPa 0,0 l/m 11,8 km/h N-NW 4,7 C 3,0 C 30,6 km/h
16.05.2010 04:00 6,6 C 87 % 1004,4 hPa 1,6 l/m 9,5 km/h NO 4,5 C 4,2 C 30,2 km/h
16.05.2010 05:00 6,3 C 87 % 1004,6 hPa 2,1 l/m 9,7 km/h N-NW 4,3 C 3,7 C 27,0 km/h
16.05.2010 06:00 6,2 C 88 % 1004,8 hPa 2,1 l/m 9,9 km/h N 4,3 C 3,4 C 26,1 km/h
16.05.2010 07:00 6,2 C 88 % 1005,2 hPa 2,1 l/m 10,4 km/h N-NW 4,4 C 3,2 C 26,9 km/h
16.05.2010 08:00 6,2 C 88 % 1005,5 hPa 1,0 l/m 9,8 km/h NW 4,4 C 3,6 C 29,4 km/h
16.05.2010 09:00 6,6 C 87 % 1005,8 hPa 0,3 l/m 9,9 km/h N-NW 4,7 C 4,0 C 27,8 km/h
16.05.2010 10:00 7,6 C 83 % 1005,8 hPa 0,3 l/m 9,4 km/h N-NW 4,9 C 5,4 C 28,6 km/h
16.05.2010 11:00 8,3 C 83 % 1006,1 hPa 0,5 l/m 11,5 km/h NW 5,4 C 4,8 C 30,2 km/h
16.05.2010 12:00 9,2 C 82 % 1006,2 hPa 0,0 l/m 11,7 km/h NW 6,3 C 5,7 C 31,8 km/h
16.05.2010 13:00 9,6 C 81 % 1006,3 hPa 0,3 l/m 10,9 km/h W 6,4 C 6,6 C 32,6 km/h
16.05.2010 14:00 9,4 C 83 % 1006,5 hPa 0,8 l/m 9,3 km/h NW 6,5 C 7,4 C 28,2 km/h
16.05.2010 15:00 8,9 C 86 % 1007,1 hPa 2,1 l/m 10,4 km/h NW 6,7 C 6,2 C 32,6 km/h
16.05.2010 16:00 8,8 C 86 % 1007,2 hPa 2,1 l/m 10,5 km/h N 6,6 C 6,0 C 33,8 km/h
16.05.2010 17:00 9,0 C 86 % 1007,6 hPa 1,3 l/m 10,0 km/h SW 6,7 C 6,5 C 35,8 km/h
16.05.2010 18:00 9,2 C 85 % 1007,6 hPa 0,8 l/m 11,3 km/h W 6,7 C 5,9 C 37,4 km/h
16.05.2010 19:00 9,4 C 84 % 1007,8 hPa 0,8 l/m 9,5 km/h NW 6,8 C 7,2 C 29,0 km/h
16.05.2010 20:00 9,4 C 84 % 1008,7 hPa 0,8 l/m 10,0 km/h N-NO 6,9 C 7,0 C 27,3 km/h
16.05.2010 21:00 9,3 C 86 % 1009,3 hPa 1,0 l/m 9,4 km/h N-NO 7,0 C 7,2 C 25,3 km/h
16.05.2010 22:00 9,2 C 87 % 1010,0 hPa 1,0 l/m 10,6 km/h NW 7,1 C 6,4 C 28,5 km/h
16.05.2010 23:00 9,1 C 87 % 1010,5 hPa 2,1 l/m 9,3 km/h N-NW 7,1 C 7,0 C 25,4 km/h
Min-Datum _ 16.05.10 11.05.10 15.05.10 - 10.05.10 - 16.05.10 16.05.10 10.05.10
_ Min-Zeit 06:45 16:15 19:30 - 00:00 - 06:45 02:45 00:45
Minimum _ 6,1 C 57 % 1002,7 hPa - 0,0 km/h - 4,3 C 1,2 C 0,0 km/h
Max-Datum _ 11.05.10 10.05.10 16.05.10 13.05.10 16.05.10 - 11.05.10 11.05.10 16.05.10
_ Max-Zeit 16:15 06:15 23:45 18:15 02:45 - 11:00 16:15 16:45
Maximum _ 22,1 C 93 % 1010,7 hPa 6,8 l/m 15,1 km/h
N-NW
- 14,0 C 22,1 C 41,8 km/h
W
Durchschnitt _ 13,0 C 81 % 1005,7 hPa #51,5 l/m 3,1 km/h N-NW 9,7 C 12,5 C 10,0 km/h